sensor_id;sensor_type;location;lat;lon;timestamp;P1;durP1;ratioP1;P2;durP2;ratioP2
71790;SDS011;59638;52.126;5.434;2022-09-03T00:01:31;2.67;;;0.50;;
71790;SDS011;59638;52.126;5.434;2022-09-03T00:04:02;2.25;;;0.50;;
71790;SDS011;59638;52.126;5.434;2022-09-03T00:06:39;3.38;;;0.40;;
71790;SDS011;59638;52.126;5.434;2022-09-03T00:09:13;1.20;;;0.30;;
71790;SDS011;59638;52.126;5.434;2022-09-03T00:11:47;2.28;;;0.63;;
71790;SDS011;59638;52.126;5.434;2022-09-03T00:14:25;1.25;;;0.30;;
71790;SDS011;59638;52.126;5.434;2022-09-03T00:17:06;1.23;;;0.40;;
71790;SDS011;59638;52.126;5.434;2022-09-03T00:19:45;5.35;;;0.65;;
71790;SDS011;59638;52.126;5.434;2022-09-03T00:22:23;1.03;;;0.43;;
71790;SDS011;59638;52.126;5.434;2022-09-03T00:24:55;3.78;;;0.30;;
71790;SDS011;59638;52.126;5.434;2022-09-03T00:27:25;2.15;;;0.30;;
71790;SDS011;59638;52.126;5.434;2022-09-03T00:32:27;2.05;;;0.52;;
71790;SDS011;59638;52.126;5.434;2022-09-03T00:35:01;2.63;;;0.30;;
71790;SDS011;59638;52.126;5.434;2022-09-03T00:37:30;0.90;;;0.30;;
71790;SDS011;59638;52.126;5.434;2022-09-03T00:40:04;1.38;;;0.40;;
71790;SDS011;59638;52.126;5.434;2022-09-03T00:42:41;5.00;;;0.50;;
71790;SDS011;59638;52.126;5.434;2022-09-03T00:54:24;2.42;;;0.20;;
71790;SDS011;59638;52.126;5.434;2022-09-03T01:05:51;1.98;;;0.35;;
71790;SDS011;59638;52.126;5.434;2022-09-03T01:14:16;2.28;;;0.30;;
71790;SDS011;59638;52.126;5.434;2022-09-03T01:16:51;1.37;;;0.30;;
71790;SDS011;59638;52.126;5.434;2022-09-03T01:27:35;1.92;;;0.30;;
71790;SDS011;59638;52.126;5.434;2022-09-03T01:30:10;1.27;;;0.30;;
71790;SDS011;59638;52.126;5.434;2022-09-03T01:35:37;1.00;;;0.30;;
71790;SDS011;59638;52.126;5.434;2022-09-03T01:38:15;0.80;;;0.40;;
71790;SDS011;59638;52.126;5.434;2022-09-03T01:43:56;2.83;;;0.30;;
71790;SDS011;59638;52.126;5.434;2022-09-03T01:46:36;0.73;;;0.30;;
71790;SDS011;59638;52.126;5.434;2022-09-03T01:51:36;1.30;;;0.28;;
71790;SDS011;59638;52.126;5.434;2022-09-03T02:00:07;1.60;;;0.45;;
71790;SDS011;59638;52.126;5.434;2022-09-03T02:02:35;1.10;;;0.32;;
71790;SDS011;59638;52.126;5.434;2022-09-03T02:05:06;1.30;;;0.30;;
71790;SDS011;59638;52.126;5.434;2022-09-03T02:07:39;3.17;;;0.30;;
71790;SDS011;59638;52.126;5.434;2022-09-03T02:10:10;1.07;;;0.27;;
71790;SDS011;59638;52.126;5.434;2022-09-03T02:12:47;1.27;;;0.47;;
71790;SDS011;59638;52.126;5.434;2022-09-03T02:15:17;2.05;;;0.63;;
71790;SDS011;59638;52.126;5.434;2022-09-03T02:17:46;1.20;;;0.20;;
71790;SDS011;59638;52.126;5.434;2022-09-03T02:20:16;0.75;;;0.22;;
71790;SDS011;59638;52.126;5.434;2022-09-03T02:22:45;0.90;;;0.27;;
71790;SDS011;59638;52.126;5.434;2022-09-03T02:25:13;0.90;;;0.30;;
71790;SDS011;59638;52.126;5.434;2022-09-03T02:27:40;2.53;;;0.20;;
71790;SDS011;59638;52.126;5.434;2022-09-03T02:30:07;1.25;;;0.30;;
71790;SDS011;59638;52.126;5.434;2022-09-03T02:32:34;1.20;;;0.40;;
71790;SDS011;59638;52.126;5.434;2022-09-03T02:35:01;2.57;;;0.30;;
71790;SDS011;59638;52.126;5.434;2022-09-03T02:37:27;3.30;;;0.20;;
71790;SDS011;59638;52.126;5.434;2022-09-03T02:39:54;3.72;;;0.30;;
71790;SDS011;59638;52.126;5.434;2022-09-03T02:42:20;0.85;;;0.30;;
71790;SDS011;59638;52.126;5.434;2022-09-03T02:44:47;3.97;;;0.45;;
71790;SDS011;59638;52.126;5.434;2022-09-03T02:47:18;0.70;;;0.20;;
71790;SDS011;59638;52.126;5.434;2022-09-03T02:49:46;1.30;;;0.30;;
71790;SDS011;59638;52.126;5.434;2022-09-03T02:52:14;5.28;;;0.40;;
71790;SDS011;59638;52.126;5.434;2022-09-03T02:54:41;1.08;;;0.30;;
71790;SDS011;59638;52.126;5.434;2022-09-03T02:57:08;3.22;;;0.30;;
71790;SDS011;59638;52.126;5.434;2022-09-03T02:59:35;1.03;;;0.30;;
71790;SDS011;59638;52.126;5.434;2022-09-03T03:02:03;1.67;;;0.40;;
71790;SDS011;59638;52.126;5.434;2022-09-03T03:04:29;1.55;;;0.32;;
71790;SDS011;59638;52.126;5.434;2022-09-03T03:06:57;2.35;;;0.30;;
71790;SDS011;59638;52.126;5.434;2022-09-03T03:09:24;2.42;;;0.30;;
71790;SDS011;59638;52.126;5.434;2022-09-03T03:11:50;2.67;;;0.33;;
71790;SDS011;59638;52.126;5.434;2022-09-03T03:14:17;1.92;;;0.60;;
71790;SDS011;59638;52.126;5.434;2022-09-03T03:16:43;2.67;;;0.20;;
71790;SDS011;59638;52.126;5.434;2022-09-03T03:19:10;3.33;;;0.30;;
71790;SDS011;59638;52.126;5.434;2022-09-03T03:21:37;2.83;;;0.50;;
71790;SDS011;59638;52.126;5.434;2022-09-03T03:24:03;0.57;;;0.20;;
71790;SDS011;59638;52.126;5.434;2022-09-03T03:26:30;1.00;;;0.30;;
71790;SDS011;59638;52.126;5.434;2022-09-03T03:28:57;3.72;;;0.40;;
71790;SDS011;59638;52.126;5.434;2022-09-03T03:31:26;0.82;;;0.30;;
71790;SDS011;59638;52.126;5.434;2022-09-03T03:33:53;2.60;;;0.30;;
71790;SDS011;59638;52.126;5.434;2022-09-03T03:36:22;1.63;;;0.40;;
71790;SDS011;59638;52.126;5.434;2022-09-03T03:38:51;1.92;;;0.30;;
71790;SDS011;59638;52.126;5.434;2022-09-03T03:41:20;1.02;;;0.38;;
71790;SDS011;59638;52.126;5.434;2022-09-03T03:43:54;1.33;;;0.52;;
71790;SDS011;59638;52.126;5.434;2022-09-03T03:46:23;0.70;;;0.30;;
71790;SDS011;59638;52.126;5.434;2022-09-03T03:48:51;2.77;;;0.20;;
71790;SDS011;59638;52.126;5.434;2022-09-03T03:51:17;6.68;;;0.30;;
71790;SDS011;59638;52.126;5.434;2022-09-03T03:53:44;2.35;;;0.30;;
71790;SDS011;59638;52.126;5.434;2022-09-03T03:56:13;1.27;;;0.32;;
71790;SDS011;59638;52.126;5.434;2022-09-03T03:58:41;4.68;;;0.43;;
71790;SDS011;59638;52.126;5.434;2022-09-03T04:01:13;2.73;;;0.50;;
71790;SDS011;59638;52.126;5.434;2022-09-03T04:03:41;1.48;;;0.40;;
71790;SDS011;59638;52.126;5.434;2022-09-03T04:06:08;1.10;;;0.30;;
71790;SDS011;59638;52.126;5.434;2022-09-03T04:08:38;1.10;;;0.30;;
71790;SDS011;59638;52.126;5.434;2022-09-03T04:11:06;0.95;;;0.40;;
71790;SDS011;59638;52.126;5.434;2022-09-03T04:13:34;3.93;;;0.37;;
71790;SDS011;59638;52.126;5.434;2022-09-03T04:16:03;1.08;;;0.40;;
71790;SDS011;59638;52.126;5.434;2022-09-03T04:18:31;2.13;;;0.38;;
71790;SDS011;59638;52.126;5.434;2022-09-03T04:21:02;1.70;;;0.30;;
71790;SDS011;59638;52.126;5.434;2022-09-03T04:23:32;1.38;;;0.30;;
71790;SDS011;59638;52.126;5.434;2022-09-03T04:26:00;2.60;;;0.30;;
71790;SDS011;59638;52.126;5.434;2022-09-03T04:28:26;3.35;;;0.40;;
71790;SDS011;59638;52.126;5.434;2022-09-03T04:30:53;2.28;;;0.20;;
71790;SDS011;59638;52.126;5.434;2022-09-03T04:33:20;1.33;;;0.20;;
71790;SDS011;59638;52.126;5.434;2022-09-03T04:35:50;1.10;;;0.30;;
71790;SDS011;59638;52.126;5.434;2022-09-03T04:38:16;7.37;;;0.50;;
71790;SDS011;59638;52.126;5.434;2022-09-03T04:40:43;5.00;;;0.30;;
71790;SDS011;59638;52.126;5.434;2022-09-03T04:43:17;0.98;;;0.30;;
71790;SDS011;59638;52.126;5.434;2022-09-03T04:45:43;0.90;;;0.28;;
71790;SDS011;59638;52.126;5.434;2022-09-03T04:48:10;2.05;;;0.20;;
71790;SDS011;59638;52.126;5.434;2022-09-03T04:50:37;0.77;;;0.30;;
71790;SDS011;59638;52.126;5.434;2022-09-03T04:53:03;0.95;;;0.47;;
71790;SDS011;59638;52.126;5.434;2022-09-03T04:55:34;1.20;;;0.30;;
71790;SDS011;59638;52.126;5.434;2022-09-03T04:58:01;4.22;;;0.30;;
71790;SDS011;59638;52.126;5.434;2022-09-03T05:00:27;2.42;;;0.38;;
71790;SDS011;59638;52.126;5.434;2022-09-03T05:02:54;2.60;;;0.40;;
71790;SDS011;59638;52.126;5.434;2022-09-03T05:05:20;2.15;;;0.40;;
71790;SDS011;59638;52.126;5.434;2022-09-03T05:07:47;1.05;;;0.30;;
71790;SDS011;59638;52.126;5.434;2022-09-03T05:10:13;0.77;;;0.20;;
71790;SDS011;59638;52.126;5.434;2022-09-03T05:12:46;1.17;;;0.25;;
71790;SDS011;59638;52.126;5.434;2022-09-03T05:15:14;0.70;;;0.30;;
71790;SDS011;59638;52.126;5.434;2022-09-03T05:17:41;1.17;;;0.35;;
71790;SDS011;59638;52.126;5.434;2022-09-03T05:20:07;0.85;;;0.30;;
71790;SDS011;59638;52.126;5.434;2022-09-03T05:22:34;2.53;;;0.30;;
71790;SDS011;59638;52.126;5.434;2022-09-03T05:25:00;0.75;;;0.20;;
71790;SDS011;59638;52.126;5.434;2022-09-03T05:27:27;5.00;;;0.20;;
71790;SDS011;59638;52.126;5.434;2022-09-03T05:29:53;3.03;;;0.30;;
71790;SDS011;59638;52.126;5.434;2022-09-03T05:32:19;2.60;;;0.30;;
71790;SDS011;59638;52.126;5.434;2022-09-03T05:34:46;2.67;;;0.20;;
71790;SDS011;59638;52.126;5.434;2022-09-03T05:37:12;0.68;;;0.40;;
71790;SDS011;59638;52.126;5.434;2022-09-03T05:39:38;1.67;;;0.20;;
71790;SDS011;59638;52.126;5.434;2022-09-03T05:42:05;0.80;;;0.20;;
71790;SDS011;59638;52.126;5.434;2022-09-03T05:44:31;5.65;;;0.38;;
71790;SDS011;59638;52.126;5.434;2022-09-03T05:46:58;1.10;;;0.40;;
71790;SDS011;59638;52.126;5.434;2022-09-03T05:49:25;3.92;;;0.30;;
71790;SDS011;59638;52.126;5.434;2022-09-03T05:51:51;3.53;;;0.30;;
71790;SDS011;59638;52.126;5.434;2022-09-03T05:54:18;1.25;;;0.80;;
71790;SDS011;59638;52.126;5.434;2022-09-03T05:56:44;0.65;;;0.30;;
71790;SDS011;59638;52.126;5.434;2022-09-03T05:59:11;3.15;;;0.38;;
71790;SDS011;59638;52.126;5.434;2022-09-03T06:01:39;4.13;;;0.40;;
71790;SDS011;59638;52.126;5.434;2022-09-03T06:04:16;3.60;;;0.50;;
71790;SDS011;59638;52.126;5.434;2022-09-03T06:06:43;4.70;;;0.68;;
71790;SDS011;59638;52.126;5.434;2022-09-03T06:09:14;6.93;;;0.30;;
71790;SDS011;59638;52.126;5.434;2022-09-03T06:11:43;1.95;;;0.25;;
71790;SDS011;59638;52.126;5.434;2022-09-03T06:14:11;7.22;;;0.55;;
71790;SDS011;59638;52.126;5.434;2022-09-03T06:16:40;1.70;;;0.30;;
71790;SDS011;59638;52.126;5.434;2022-09-03T06:19:08;3.50;;;0.30;;
71790;SDS011;59638;52.126;5.434;2022-09-03T06:21:36;2.65;;;0.35;;
71790;SDS011;59638;52.126;5.434;2022-09-03T06:24:08;1.33;;;0.30;;
71790;SDS011;59638;52.126;5.434;2022-09-03T06:26:37;3.70;;;0.30;;
71790;SDS011;59638;52.126;5.434;2022-09-03T06:29:08;1.00;;;0.20;;
71790;SDS011;59638;52.126;5.434;2022-09-03T06:31:34;3.10;;;0.50;;
71790;SDS011;59638;52.126;5.434;2022-09-03T06:34:01;1.15;;;0.20;;
71790;SDS011;59638;52.126;5.434;2022-09-03T06:36:29;0.93;;;0.20;;
71790;SDS011;59638;52.126;5.434;2022-09-03T06:38:56;3.10;;;0.30;;
71790;SDS011;59638;52.126;5.434;2022-09-03T06:41:24;3.93;;;0.27;;
71790;SDS011;59638;52.126;5.434;2022-09-03T06:43:53;1.02;;;0.40;;
71790;SDS011;59638;52.126;5.434;2022-09-03T06:46:25;3.22;;;0.98;;
71790;SDS011;59638;52.126;5.434;2022-09-03T06:48:51;1.85;;;0.40;;
71790;SDS011;59638;52.126;5.434;2022-09-03T06:51:19;5.72;;;0.30;;
71790;SDS011;59638;52.126;5.434;2022-09-03T06:53:50;0.97;;;0.30;;
71790;SDS011;59638;52.126;5.434;2022-09-03T06:56:20;5.03;;;0.30;;
71790;SDS011;59638;52.126;5.434;2022-09-03T06:58:52;1.98;;;0.30;;
71790;SDS011;59638;52.126;5.434;2022-09-03T07:01:29;5.57;;;0.52;;
71790;SDS011;59638;52.126;5.434;2022-09-03T07:03:58;3.45;;;0.32;;
71790;SDS011;59638;52.126;5.434;2022-09-03T07:06:30;5.07;;;0.50;;
71790;SDS011;59638;52.126;5.434;2022-09-03T07:09:05;1.88;;;0.30;;
71790;SDS011;59638;52.126;5.434;2022-09-03T07:11:32;2.90;;;0.30;;
71790;SDS011;59638;52.126;5.434;2022-09-03T07:14:01;1.98;;;0.40;;
71790;SDS011;59638;52.126;5.434;2022-09-03T07:16:31;0.90;;;0.38;;
71790;SDS011;59638;52.126;5.434;2022-09-03T07:18:59;1.00;;;0.30;;
71790;SDS011;59638;52.126;5.434;2022-09-03T07:21:27;2.35;;;0.50;;
71790;SDS011;59638;52.126;5.434;2022-09-03T07:23:55;2.33;;;0.40;;
71790;SDS011;59638;52.126;5.434;2022-09-03T07:26:23;2.15;;;0.75;;
71790;SDS011;59638;52.126;5.434;2022-09-03T07:28:51;5.13;;;1.77;;
71790;SDS011;59638;52.126;5.434;2022-09-03T07:31:20;2.60;;;0.30;;
71790;SDS011;59638;52.126;5.434;2022-09-03T07:33:54;1.83;;;0.47;;
71790;SDS011;59638;52.126;5.434;2022-09-03T07:36:22;2.28;;;0.40;;
71790;SDS011;59638;52.126;5.434;2022-09-03T07:38:49;1.42;;;0.50;;
71790;SDS011;59638;52.126;5.434;2022-09-03T07:41:16;2.60;;;0.80;;
71790;SDS011;59638;52.126;5.434;2022-09-03T07:43:54;2.33;;;0.90;;
71790;SDS011;59638;52.126;5.434;2022-09-03T07:46:21;1.88;;;0.40;;
71790;SDS011;59638;52.126;5.434;2022-09-03T07:48:50;3.90;;;0.50;;
71790;SDS011;59638;52.126;5.434;2022-09-03T07:51:22;3.05;;;0.30;;
71790;SDS011;59638;52.126;5.434;2022-09-03T07:53:54;1.35;;;0.50;;
71790;SDS011;59638;52.126;5.434;2022-09-03T07:56:25;1.73;;;0.47;;
71790;SDS011;59638;52.126;5.434;2022-09-03T07:58:52;3.28;;;0.68;;
71790;SDS011;59638;52.126;5.434;2022-09-03T08:01:20;4.63;;;0.60;;
71790;SDS011;59638;52.126;5.434;2022-09-03T08:03:49;3.38;;;0.63;;
71790;SDS011;59638;52.126;5.434;2022-09-03T08:06:17;5.28;;;0.63;;
71790;SDS011;59638;52.126;5.434;2022-09-03T08:08:45;4.43;;;0.60;;
71790;SDS011;59638;52.126;5.434;2022-09-03T08:11:12;1.27;;;0.55;;
71790;SDS011;59638;52.126;5.434;2022-09-03T08:13:45;1.98;;;0.60;;
71790;SDS011;59638;52.126;5.434;2022-09-03T08:16:14;1.67;;;0.75;;
71790;SDS011;59638;52.126;5.434;2022-09-03T08:18:46;1.25;;;0.60;;
71790;SDS011;59638;52.126;5.434;2022-09-03T08:21:13;2.53;;;0.40;;
71790;SDS011;59638;52.126;5.434;2022-09-03T08:23:42;1.25;;;0.40;;
71790;SDS011;59638;52.126;5.434;2022-09-03T08:26:09;4.00;;;0.70;;
71790;SDS011;59638;52.126;5.434;2022-09-03T08:28:36;7.60;;;0.73;;
71790;SDS011;59638;52.126;5.434;2022-09-03T08:31:06;2.63;;;0.70;;
71790;SDS011;59638;52.126;5.434;2022-09-03T08:33:35;4.17;;;0.70;;
71790;SDS011;59638;52.126;5.434;2022-09-03T08:36:07;2.15;;;0.50;;
71790;SDS011;59638;52.126;5.434;2022-09-03T08:38:38;1.63;;;0.60;;
71790;SDS011;59638;52.126;5.434;2022-09-03T08:41:10;1.65;;;0.55;;
71790;SDS011;59638;52.126;5.434;2022-09-03T08:46:34;4.90;;;1.00;;
71790;SDS011;59638;52.126;5.434;2022-09-03T08:49:22;2.00;;;0.60;;
71790;SDS011;59638;52.126;5.434;2022-09-03T08:51:54;2.67;;;0.73;;
71790;SDS011;59638;52.126;5.434;2022-09-03T08:54:23;3.88;;;0.80;;
71790;SDS011;59638;52.126;5.434;2022-09-03T08:56:54;3.10;;;0.68;;
71790;SDS011;59638;52.126;5.434;2022-09-03T08:59:25;2.40;;;0.80;;
71790;SDS011;59638;52.126;5.434;2022-09-03T09:02:14;2.20;;;0.50;;
71790;SDS011;59638;52.126;5.434;2022-09-03T09:05:02;3.05;;;0.93;;
71790;SDS011;59638;52.126;5.434;2022-09-03T09:10:24;4.97;;;0.77;;
71790;SDS011;59638;52.126;5.434;2022-09-03T09:13:09;3.93;;;0.80;;
71790;SDS011;59638;52.126;5.434;2022-09-03T09:21:17;6.38;;;0.60;;
71790;SDS011;59638;52.126;5.434;2022-09-03T09:23:52;1.23;;;0.80;;
71790;SDS011;59638;52.126;5.434;2022-09-03T09:26:26;3.43;;;0.57;;
71790;SDS011;59638;52.126;5.434;2022-09-03T09:28:55;6.05;;;1.10;;
71790;SDS011;59638;52.126;5.434;2022-09-03T09:31:26;4.25;;;0.60;;
71790;SDS011;59638;52.126;5.434;2022-09-03T09:33:53;5.78;;;0.73;;
71790;SDS011;59638;52.126;5.434;2022-09-03T09:36:19;2.70;;;0.82;;
71790;SDS011;59638;52.126;5.434;2022-09-03T09:38:47;3.63;;;0.57;;
71790;SDS011;59638;52.126;5.434;2022-09-03T09:41:15;6.40;;;0.60;;
71790;SDS011;59638;52.126;5.434;2022-09-03T09:43:46;3.53;;;0.70;;
71790;SDS011;59638;52.126;5.434;2022-09-03T09:46:22;2.60;;;0.60;;
71790;SDS011;59638;52.126;5.434;2022-09-03T09:48:52;3.38;;;0.63;;
71790;SDS011;59638;52.126;5.434;2022-09-03T09:51:28;1.10;;;0.57;;
71790;SDS011;59638;52.126;5.434;2022-09-03T09:56:41;5.85;;;0.65;;
71790;SDS011;59638;52.126;5.434;2022-09-03T09:59:09;3.47;;;0.40;;
71790;SDS011;59638;52.126;5.434;2022-09-03T10:01:37;2.00;;;0.60;;
71790;SDS011;59638;52.126;5.434;2022-09-03T10:07:01;3.95;;;0.77;;
71790;SDS011;59638;52.126;5.434;2022-09-03T10:09:29;4.47;;;0.57;;
71790;SDS011;59638;52.126;5.434;2022-09-03T10:18:04;1.10;;;0.63;;
71790;SDS011;59638;52.126;5.434;2022-09-03T10:20:48;4.72;;;0.40;;
71790;SDS011;59638;52.126;5.434;2022-09-03T10:28:58;4.90;;;0.80;;
71790;SDS011;59638;52.126;5.434;2022-09-03T10:34:31;4.13;;;0.77;;
71790;SDS011;59638;52.126;5.434;2022-09-03T10:39:59;3.72;;;0.40;;
71790;SDS011;59638;52.126;5.434;2022-09-03T10:48:33;2.08;;;0.55;;
71790;SDS011;59638;52.126;5.434;2022-09-03T10:51:13;3.30;;;0.95;;
71790;SDS011;59638;52.126;5.434;2022-09-03T10:56:46;2.22;;;0.85;;
71790;SDS011;59638;52.126;5.434;2022-09-03T11:07:27;2.83;;;0.70;;
71790;SDS011;59638;52.126;5.434;2022-09-03T11:12:47;1.17;;;0.60;;
71790;SDS011;59638;52.126;5.434;2022-09-03T11:15:30;1.83;;;0.57;;
71790;SDS011;59638;52.126;5.434;2022-09-03T11:18:07;3.65;;;0.70;;
71790;SDS011;59638;52.126;5.434;2022-09-03T11:20:43;2.33;;;0.82;;
71790;SDS011;59638;52.126;5.434;2022-09-03T11:23:09;3.15;;;0.70;;
71790;SDS011;59638;52.126;5.434;2022-09-03T11:25:40;4.43;;;0.90;;
71790;SDS011;59638;52.126;5.434;2022-09-03T11:28:19;6.88;;;0.90;;
71790;SDS011;59638;52.126;5.434;2022-09-03T11:31:04;1.58;;;0.82;;
71790;SDS011;59638;52.126;5.434;2022-09-03T11:33:32;3.03;;;0.70;;
71790;SDS011;59638;52.126;5.434;2022-09-03T11:36:04;1.05;;;0.65;;
71790;SDS011;59638;52.126;5.434;2022-09-03T11:38:31;1.50;;;0.93;;
71790;SDS011;59638;52.126;5.434;2022-09-03T11:41:14;4.03;;;0.85;;
71790;SDS011;59638;52.126;5.434;2022-09-03T11:43:52;1.23;;;0.50;;
71790;SDS011;59638;52.126;5.434;2022-09-03T11:48:47;0.82;;;0.60;;
71790;SDS011;59638;52.126;5.434;2022-09-03T11:51:16;3.70;;;1.07;;
71790;SDS011;59638;52.126;5.434;2022-09-03T11:53:59;4.97;;;0.70;;
71790;SDS011;59638;52.126;5.434;2022-09-03T11:56:27;4.32;;;1.00;;
71790;SDS011;59638;52.126;5.434;2022-09-03T11:59:02;2.10;;;0.57;;
71790;SDS011;59638;52.126;5.434;2022-09-03T12:01:42;2.58;;;0.90;;
71790;SDS011;59638;52.126;5.434;2022-09-03T12:04:13;4.13;;;1.00;;
71790;SDS011;59638;52.126;5.434;2022-09-03T12:18:13;1.40;;;0.90;;
71790;SDS011;59638;52.126;5.434;2022-09-03T12:20:59;4.72;;;0.50;;
71790;SDS011;59638;52.126;5.434;2022-09-03T12:23:34;1.73;;;0.55;;
71790;SDS011;59638;52.126;5.434;2022-09-03T12:26:14;1.60;;;0.68;;
71790;SDS011;59638;52.126;5.434;2022-09-03T12:28:57;1.67;;;0.60;;
71790;SDS011;59638;52.126;5.434;2022-09-03T12:31:26;5.90;;;0.83;;
71790;SDS011;59638;52.126;5.434;2022-09-03T12:34:01;2.92;;;0.65;;
71790;SDS011;59638;52.126;5.434;2022-09-03T12:36:38;1.10;;;0.60;;
71790;SDS011;59638;52.126;5.434;2022-09-03T12:39:09;1.25;;;0.73;;
71790;SDS011;59638;52.126;5.434;2022-09-03T12:41:45;3.10;;;0.80;;
71790;SDS011;59638;52.126;5.434;2022-09-03T12:44:18;1.43;;;0.70;;
71790;SDS011;59638;52.126;5.434;2022-09-03T12:46:59;5.47;;;0.70;;
71790;SDS011;59638;52.126;5.434;2022-09-03T12:49:50;1.15;;;0.60;;
71790;SDS011;59638;52.126;5.434;2022-09-03T12:52:32;2.75;;;0.68;;
71790;SDS011;59638;52.126;5.434;2022-09-03T12:58:12;2.70;;;0.60;;
71790;SDS011;59638;52.126;5.434;2022-09-03T13:00:47;1.63;;;0.77;;
71790;SDS011;59638;52.126;5.434;2022-09-03T13:06:09;3.28;;;0.80;;
71790;SDS011;59638;52.126;5.434;2022-09-03T13:08:40;1.30;;;0.60;;
71790;SDS011;59638;52.126;5.434;2022-09-03T13:11:13;2.60;;;0.77;;
71790;SDS011;59638;52.126;5.434;2022-09-03T13:16:38;6.43;;;0.95;;
71790;SDS011;59638;52.126;5.434;2022-09-03T13:19:34;1.08;;;0.32;;
71790;SDS011;59638;52.126;5.434;2022-09-03T13:22:18;8.95;;;1.67;;
71790;SDS011;59638;52.126;5.434;2022-09-03T13:30:22;5.95;;;0.75;;
71790;SDS011;59638;52.126;5.434;2022-09-03T13:38:53;2.97;;;0.40;;
71790;SDS011;59638;52.126;5.434;2022-09-03T13:41:43;1.55;;;0.45;;
71790;SDS011;59638;52.126;5.434;2022-09-03T13:44:16;0.93;;;0.43;;
71790;SDS011;59638;52.126;5.434;2022-09-03T13:46:54;1.35;;;0.52;;
71790;SDS011;59638;52.126;5.434;2022-09-03T13:52:52;1.53;;;0.90;;
71790;SDS011;59638;52.126;5.434;2022-09-03T13:55:43;1.27;;;0.60;;
71790;SDS011;59638;52.126;5.434;2022-09-03T14:01:25;3.47;;;0.65;;
71790;SDS011;59638;52.126;5.434;2022-09-03T14:04:02;1.02;;;0.40;;
71790;SDS011;59638;52.126;5.434;2022-09-03T14:12:33;1.17;;;0.68;;
71790;SDS011;59638;52.126;5.434;2022-09-03T14:15:29;0.90;;;0.60;;
71790;SDS011;59638;52.126;5.434;2022-09-03T14:23:45;6.70;;;0.50;;
71790;SDS011;59638;52.126;5.434;2022-09-03T14:26:17;2.40;;;0.60;;
71790;SDS011;59638;52.126;5.434;2022-09-03T14:31:46;2.05;;;0.40;;
71790;SDS011;59638;52.126;5.434;2022-09-03T14:37:42;7.88;;;0.70;;
71790;SDS011;59638;52.126;5.434;2022-09-03T14:40:15;2.97;;;0.40;;
71790;SDS011;59638;52.126;5.434;2022-09-03T15:07:53;2.97;;;0.43;;
71790;SDS011;59638;52.126;5.434;2022-09-03T15:13:23;1.80;;;0.50;;
71790;SDS011;59638;52.126;5.434;2022-09-03T15:18:49;1.83;;;0.60;;
71790;SDS011;59638;52.126;5.434;2022-09-03T15:21:35;2.63;;;0.20;;
71790;SDS011;59638;52.126;5.434;2022-09-03T15:30:11;2.00;;;0.60;;
71790;SDS011;59638;52.126;5.434;2022-09-03T15:33:01;3.50;;;0.80;;
71790;SDS011;59638;52.126;5.434;2022-09-03T15:41:32;0.80;;;0.60;;
71790;SDS011;59638;52.126;5.434;2022-09-03T15:44:11;7.93;;;1.00;;
71790;SDS011;59638;52.126;5.434;2022-09-03T15:46:49;2.17;;;0.60;;
71790;SDS011;59638;52.126;5.434;2022-09-03T15:49:30;1.60;;;0.60;;
71790;SDS011;59638;52.126;5.434;2022-09-03T15:55:00;2.03;;;0.63;;
71790;SDS011;59638;52.126;5.434;2022-09-03T16:00:07;5.32;;;0.60;;
71790;SDS011;59638;52.126;5.434;2022-09-03T16:02:39;2.35;;;0.30;;
71790;SDS011;59638;52.126;5.434;2022-09-03T16:05:18;5.85;;;0.60;;
71790;SDS011;59638;52.126;5.434;2022-09-03T16:10:57;1.43;;;0.90;;
71790;SDS011;59638;52.126;5.434;2022-09-03T16:16:21;5.05;;;0.50;;
71790;SDS011;59638;52.126;5.434;2022-09-03T16:18:57;1.63;;;0.80;;
71790;SDS011;59638;52.126;5.434;2022-09-03T16:24:43;1.00;;;0.60;;
71790;SDS011;59638;52.126;5.434;2022-09-03T16:27:17;1.90;;;0.40;;
71790;SDS011;59638;52.126;5.434;2022-09-03T16:30:00;6.13;;;0.57;;
71790;SDS011;59638;52.126;5.434;2022-09-03T16:35:16;2.20;;;0.35;;
71790;SDS011;59638;52.126;5.434;2022-09-03T16:41:10;2.08;;;0.45;;
71790;SDS011;59638;52.126;5.434;2022-09-03T16:47:00;2.15;;;0.70;;
71790;SDS011;59638;52.126;5.434;2022-09-03T16:49:58;3.05;;;0.50;;
71790;SDS011;59638;52.126;5.434;2022-09-03T17:06:33;0.97;;;0.67;;
71790;SDS011;59638;52.126;5.434;2022-09-03T17:09:17;3.05;;;0.35;;
71790;SDS011;59638;52.126;5.434;2022-09-03T17:14:45;2.17;;;0.60;;
71790;SDS011;59638;52.126;5.434;2022-09-03T17:17:43;2.13;;;0.55;;
71790;SDS011;59638;52.126;5.434;2022-09-03T17:20:29;1.13;;;0.53;;
71790;SDS011;59638;52.126;5.434;2022-09-03T17:26:00;2.78;;;0.90;;
71790;SDS011;59638;52.126;5.434;2022-09-03T17:28:41;6.80;;;1.00;;
71790;SDS011;59638;52.126;5.434;2022-09-03T17:35:29;7.43;;;0.77;;
71790;SDS011;59638;52.126;5.434;2022-09-03T17:37:45;3.15;;;0.60;;
71790;SDS011;59638;52.126;5.434;2022-09-03T17:49:26;2.03;;;0.60;;
71790;SDS011;59638;52.126;5.434;2022-09-03T17:52:14;1.98;;;0.60;;
71790;SDS011;59638;52.126;5.434;2022-09-03T17:54:44;3.90;;;0.40;;
71790;SDS011;59638;52.126;5.434;2022-09-03T17:57:58;2.45;;;0.50;;
71790;SDS011;59638;52.126;5.434;2022-09-03T18:00:11;4.10;;;0.70;;
71790;SDS011;59638;52.126;5.434;2022-09-03T18:06:25;1.27;;;0.50;;
71790;SDS011;59638;52.126;5.434;2022-09-03T18:08:45;2.88;;;0.40;;
71790;SDS011;59638;52.126;5.434;2022-09-03T18:11:18;2.75;;;0.35;;
71790;SDS011;59638;52.126;5.434;2022-09-03T18:14:06;3.97;;;0.70;;
71790;SDS011;59638;52.126;5.434;2022-09-03T18:16:46;1.73;;;0.53;;
71790;SDS011;59638;52.126;5.434;2022-09-03T18:19:38;2.70;;;0.68;;
71790;SDS011;59638;52.126;5.434;2022-09-03T18:22:35;1.88;;;0.80;;
71790;SDS011;59638;52.126;5.434;2022-09-03T18:25:30;1.48;;;0.65;;
71790;SDS011;59638;52.126;5.434;2022-09-03T18:28:19;1.83;;;0.55;;
71790;SDS011;59638;52.126;5.434;2022-09-03T18:31:17;3.50;;;0.50;;
71790;SDS011;59638;52.126;5.434;2022-09-03T18:34:02;6.38;;;1.33;;
71790;SDS011;59638;52.126;5.434;2022-09-03T18:36:48;0.88;;;0.40;;
71790;SDS011;59638;52.126;5.434;2022-09-03T18:39:32;0.85;;;0.70;;
71790;SDS011;59638;52.126;5.434;2022-09-03T18:45:25;2.27;;;0.50;;
71790;SDS011;59638;52.126;5.434;2022-09-03T18:48:45;0.98;;;0.40;;
71790;SDS011;59638;52.126;5.434;2022-09-03T18:55:00;2.55;;;0.80;;
71790;SDS011;59638;52.126;5.434;2022-09-03T19:07:59;2.65;;;0.80;;
71790;SDS011;59638;52.126;5.434;2022-09-03T19:10:58;3.03;;;0.73;;
71790;SDS011;59638;52.126;5.434;2022-09-03T19:13:50;4.15;;;0.80;;
71790;SDS011;59638;52.126;5.434;2022-09-03T19:22:36;1.50;;;0.90;;
71790;SDS011;59638;52.126;5.434;2022-09-03T19:25:24;4.68;;;1.30;;
71790;SDS011;59638;52.126;5.434;2022-09-03T19:28:12;5.03;;;0.98;;
71790;SDS011;59638;52.126;5.434;2022-09-03T19:34:22;1.75;;;0.60;;
71790;SDS011;59638;52.126;5.434;2022-09-03T19:43:34;4.68;;;1.10;;
71790;SDS011;59638;52.126;5.434;2022-09-03T19:46:36;2.60;;;1.30;;
71790;SDS011;59638;52.126;5.434;2022-09-03T19:49:37;7.28;;;1.20;;
71790;SDS011;59638;52.126;5.434;2022-09-03T19:55:24;3.03;;;1.65;;
71790;SDS011;59638;52.126;5.434;2022-09-03T19:58:11;3.88;;;1.35;;
71790;SDS011;59638;52.126;5.434;2022-09-03T20:01:09;3.30;;;1.60;;
71790;SDS011;59638;52.126;5.434;2022-09-03T20:03:55;5.88;;;2.38;;
71790;SDS011;59638;52.126;5.434;2022-09-03T20:06:44;5.43;;;1.65;;
71790;SDS011;59638;52.126;5.434;2022-09-03T20:09:31;2.70;;;2.00;;
71790;SDS011;59638;52.126;5.434;2022-09-03T20:12:21;6.03;;;2.30;;
71790;SDS011;59638;52.126;5.434;2022-09-03T20:14:51;9.93;;;2.10;;
71790;SDS011;59638;52.126;5.434;2022-09-03T20:17:36;9.55;;;3.05;;
71790;SDS011;59638;52.126;5.434;2022-09-03T20:20:16;7.15;;;3.13;;
71790;SDS011;59638;52.126;5.434;2022-09-03T20:22:57;3.47;;;2.63;;
71790;SDS011;59638;52.126;5.434;2022-09-03T20:31:43;4.30;;;3.40;;
71790;SDS011;59638;52.126;5.434;2022-09-03T20:34:23;6.85;;;3.22;;